CheckWX is a tool to help pilots better visualize weather data.  It is not intended as a substitute for an official pre-flight weather briefing.

16:25:18 UTC

KBTP METAR
Pittsburgh / Butler Regional Airport
Butler, Pennsylvania, USA
Current

29 mins ago

KBTP 291556Z AUTO 22015G20KT 10SM BKN035 BKN043 OVC050 22/15 A2967 RMK AO2 PK WND 20028/1459 SLP046 T02170150
Observed
Mar-29 @ 15:56 UTC
Wind
  • 220° at 15 KTS
  • Gusting to 20 KTS
Visibility
10 SM
Flight Rules
VFR
Cloud Levels
  • Broken at 3,500' AGL
  • Broken at 4,300' AGL
  • Overcast at 5,000' AGL
Temperature
22°C / 72°F
Dewpoint
15°C / 59°F
Humidity
65%
Altimeter
29.67" Hg
Pressure
1004.72 hPa
Previous

1 hour ago

KBTP 291456Z AUTO 21017G27KT 10SM OVC037 21/14 A2969 RMK AO2 PK WND 21029/1445 SLP054 P0001 60005 T02060144 56021
Observed
Mar-29 @ 14:56 UTC
Wind
  • 210° at 17 KTS
  • Gusting to 27 KTS
Visibility
10 SM
Flight Rules
VFR
Cloud Levels
  • Overcast at 3,700' AGL
Temperature
21°C / 70°F
Dewpoint
14°C / 57°F
Humidity
64%
Altimeter
29.69" Hg
Pressure
1005.42 hPa
Current Rain
0.01"
Previous

2 hours ago

KBTP 291356Z AUTO 20011G15KT 10SM BKN060 19/15 A2970 RMK AO2 SLP057 P0001 T01890150
Observed
Mar-29 @ 13:56 UTC
Wind
  • 200° at 11 KTS
  • Gusting to 15 KTS
Visibility
10 SM
Flight Rules
VFR
Cloud Levels
  • Broken at 6,000' AGL
Temperature
19°C / 66°F
Dewpoint
15°C / 59°F
Humidity
78%
Altimeter
29.7" Hg
Pressure
1005.72 hPa
Current Rain
0.01"